createdAt,value
2017-10-15T00:03:20.821Z,12.79
2017-10-15T00:13:20.764Z,12.64
2017-10-15T00:23:25.997Z,12.45
2017-10-15T00:33:25.663Z,12.44
2017-10-15T00:43:22.801Z,12.46
2017-10-15T00:53:20.770Z,12.41
2017-10-15T01:03:20.869Z,12.51
2017-10-15T01:13:26.817Z,12.42
2017-10-15T01:23:20.875Z,12.41
2017-10-15T01:33:21.841Z,12.26
2017-10-15T01:43:20.879Z,12.04
2017-10-15T01:53:20.831Z,11.96
2017-10-15T02:03:20.942Z,11.9
2017-10-15T02:13:22.915Z,11.74
2017-10-15T02:23:20.840Z,11.67
2017-10-15T02:33:21.906Z,11.78
2017-10-15T02:43:20.862Z,11.71
2017-10-15T02:53:22.879Z,11.7
2017-10-15T03:03:20.897Z,11.61
2017-10-15T03:13:20.956Z,11.59
2017-10-15T03:23:21.978Z,11.74
2017-10-15T03:33:20.990Z,11.56
2017-10-15T03:43:20.955Z,11.41
2017-10-15T03:53:24.738Z,11.1
2017-10-15T04:03:30.759Z,11.02
2017-10-15T04:13:21.970Z,11.16
2017-10-15T04:23:22.003Z,11.21
2017-10-15T04:33:21.025Z,11.09
2017-10-15T04:43:22.014Z,11.16
2017-10-15T04:53:21.060Z,11.16
2017-10-15T05:03:26.349Z,10.83
2017-10-15T05:13:21.087Z,10.76
2017-10-15T05:23:22.090Z,10.84
2017-10-15T05:33:20.996Z,11.13
2017-10-15T05:43:22.078Z,11.32
2017-10-15T05:53:22.048Z,11.36
2017-10-15T06:03:22.137Z,11.47
2017-10-15T06:13:21.044Z,11.52
2017-10-15T06:23:21.122Z,11.78
2017-10-15T06:33:21.092Z,11.78
2017-10-15T06:43:21.164Z,12.01
2017-10-15T06:53:21.097Z,12.09
2017-10-15T07:03:22.154Z,12.33
2017-10-15T07:13:23.189Z,12.62
2017-10-15T07:23:21.191Z,12.87
2017-10-15T07:33:22.155Z,13.11
2017-10-15T07:43:24.691Z,13.54
2017-10-15T07:53:21.187Z,13.81
2017-10-15T08:03:21.139Z,14.21
2017-10-15T08:13:21.236Z,14.42
2017-10-15T08:23:22.232Z,14.64
2017-10-15T08:33:21.279Z,14.81
2017-10-15T08:43:21.252Z,15.08
2017-10-15T08:53:21.293Z,15.54
2017-10-15T09:03:21.202Z,15.78
2017-10-15T09:13:21.217Z,15.93
2017-10-15T09:23:21.212Z,16.33
2017-10-15T09:33:21.248Z,16.75
2017-10-15T09:43:21.232Z,17.11
2017-10-15T09:53:21.271Z,17.41
2017-10-15T10:03:21.235Z,17.71
2017-10-15T10:13:21.247Z,18.17
2017-10-15T10:23:21.262Z,18.52
2017-10-15T10:33:21.262Z,18.8
2017-10-15T10:43:21.314Z,19.36
2017-10-15T10:53:21.309Z,19.79
2017-10-15T11:03:21.328Z,20.15
2017-10-15T11:13:21.299Z,20.54
2017-10-15T11:23:21.306Z,20.79
2017-10-15T11:33:21.279Z,20.95
2017-10-15T11:43:21.290Z,21.13
2017-10-15T11:53:21.393Z,21.35
2017-10-15T12:03:21.317Z,21.66
2017-10-15T12:13:21.329Z,21.79
2017-10-15T12:23:21.312Z,21.98
2017-10-15T12:33:21.307Z,22.09
2017-10-15T12:43:21.301Z,22.19
2017-10-15T12:53:21.437Z,22.5
2017-10-15T13:03:21.348Z,22.44
2017-10-15T13:13:21.306Z,22.54
2017-10-15T13:23:21.319Z,22.59
2017-10-15T13:33:21.303Z,25.99
2017-10-15T13:43:21.358Z,23.98
2017-10-15T13:53:21.347Z,23.29
2017-10-15T14:03:21.372Z,22.86
2017-10-15T14:13:35.907Z,22.67
2017-10-15T14:23:21.364Z,22.49
2017-10-15T14:33:21.357Z,22.37
2017-10-15T14:43:21.348Z,22.25
2017-10-15T14:53:21.336Z,21.99
2017-10-15T15:03:21.425Z,21.81
2017-10-15T15:13:21.341Z,21.75
2017-10-15T15:23:21.339Z,21.45
2017-10-15T15:33:21.344Z,21.3
2017-10-15T15:43:21.373Z,21.01
2017-10-15T15:53:21.335Z,20.72
2017-10-15T16:03:21.342Z,20.38
2017-10-15T16:13:21.354Z,19.93
2017-10-15T16:23:21.378Z,19.58
2017-10-15T16:33:21.338Z,19.02
2017-10-15T16:43:21.354Z,18.54
2017-10-15T16:53:21.395Z,18.12
2017-10-15T17:03:21.500Z,17.73
2017-10-15T17:13:21.365Z,17.18
2017-10-15T17:23:21.403Z,16.8
2017-10-15T17:33:21.520Z,16.53
2017-10-15T17:43:21.405Z,16.44
2017-10-15T17:53:21.553Z,16.44
2017-10-15T18:03:21.516Z,16.48
2017-10-15T18:13:21.435Z,16.35
2017-10-15T18:23:21.521Z,16.33
2017-10-15T18:33:21.956Z,16
2017-10-15T18:43:24.210Z,15.92
2017-10-15T18:53:23.788Z,15.88
2017-10-15T19:03:23.763Z,15.97
2017-10-15T19:13:23.908Z,16.09
2017-10-15T19:23:23.809Z,16.14
2017-10-15T19:33:24.331Z,16.04
2017-10-15T19:43:24.854Z,15.99
2017-10-15T19:53:23.749Z,15.97
2017-10-15T20:03:21.877Z,15.86
2017-10-15T20:13:23.749Z,16
2017-10-15T20:23:21.402Z,16
2017-10-15T20:33:21.477Z,15.57
2017-10-15T20:43:21.415Z,15.43
2017-10-15T20:53:21.402Z,15.12
2017-10-15T21:03:21.498Z,14.99
2017-10-15T21:13:21.403Z,14.86
2017-10-15T21:23:21.347Z,14.74
2017-10-15T21:33:21.415Z,14.67
2017-10-15T21:43:21.404Z,14.57
2017-10-15T21:53:21.461Z,14.49
2017-10-15T22:03:21.397Z,14.35
2017-10-15T22:13:21.663Z,14.2
2017-10-15T22:23:21.469Z,14.06
2017-10-15T22:33:21.406Z,14.06
2017-10-15T22:43:21.431Z,13.84
2017-10-15T22:53:21.413Z,13.81
2017-10-15T23:03:21.356Z,13.69
2017-10-15T23:13:21.420Z,13.56
2017-10-15T23:23:21.428Z,13.46
2017-10-15T23:33:21.357Z,13.29
2017-10-15T23:43:21.444Z,13.2
2017-10-15T23:53:21.355Z,13.07
